Time;durP1;ratioP1;P1;durP2;ratioP2;P2;SDS_P1;SDS_P2;PMS_P1;PMS_P2;Temp;Humidity;BMP_temperature;BMP_pressure;BME280_temperature;BME280_humidity;BME280_pressure;Samples;Min_cycle;Max_cycle;Signal;HPM_P1;HPM_P2
2022/03/22 00:00:44;;;;;;;3.20;2.00;;;-1.40;1.40;;;-0.50;100.00;96693.97;647402;216;31609;-77
2022/03/22 00:03:26;;;;;;;5.90;2.00;;;-1.40;1.40;;;-0.58;100.00;96698.59;647854;212;31534;-77
2022/03/22 00:06:08;;;;;;;5.43;2.75;;;-1.50;1.40;;;-0.68;100.00;96697.25;646937;212;31705;-77
2022/03/22 00:08:50;;;;;;;2.50;2.08;;;-1.50;1.40;;;-0.58;100.00;96696.70;619083;222;31950;-77
2022/03/22 00:11:35;;;;;;;2.62;2.15;;;-1.30;1.40;;;-0.49;100.00;96692.63;647225;212;42202;-77
2022/03/22 00:14:16;;;;;;;6.43;3.15;;;-1.10;1.40;;;-0.55;100.00;96695.41;620399;222;31900;-77
2022/03/22 00:16:58;;;;;;;3.22;2.83;;;-1.20;1.40;;;-0.59;100.00;96697.59;646286;216;31748;-76
2022/03/22 00:19:40;;;;;;;4.62;2.30;;;-1.40;1.40;;;-0.51;100.00;96696.11;647378;216;31576;-77
2022/03/22 00:22:22;;;;;;;7.05;2.75;;;-1.10;1.40;;;-0.52;100.00;96697.33;646186;216;31564;-76
2022/03/22 00:25:04;;;;;;;5.20;3.60;;;-1.20;1.40;;;-0.50;100.00;96695.50;648315;212;31563;-77
2022/03/22 00:27:53;;;;;;;2.70;1.60;;;-1.20;1.40;;;-0.51;100.00;96692.53;620247;226;32028;-76
2022/03/22 00:30:35;;;;;;;3.72;1.87;;;-1.20;1.40;;;-0.57;100.00;96684.17;619469;222;32066;-77
2022/03/22 00:35:53;;;;;;;2.78;2.65;;;-1.40;1.40;;;-0.59;100.00;96692.06;647207;214;42420;-77
2022/03/22 00:38:36;;;;;;;3.25;2.45;;;-1.40;1.40;;;-0.53;100.00;96692.34;646703;212;31565;-76
2022/03/22 00:41:19;;;;;;;2.67;1.95;;;-1.30;1.40;;;-0.61;100.00;96694.23;631814;222;31802;-77
2022/03/22 00:44:00;;;;;;;4.57;2.53;;;-1.30;1.40;;;-0.53;100.00;96693.53;618707;226;32279;-77
2022/03/22 00:46:42;;;;;;;3.72;2.08;;;-1.40;1.40;;;-0.57;100.00;96687.30;648327;212;42212;-76
2022/03/22 00:49:32;;;;;;;3.00;2.40;;;-1.50;1.40;;;-0.66;100.00;96687.79;646125;216;32494;-74
2022/03/22 00:52:17;;;;;;;2.83;1.73;;;-1.50;1.40;;;-0.58;100.00;96688.10;646711;212;33487;-76
2022/03/22 00:55:06;;;;;;;3.85;3.53;;;-1.50;1.40;;;-0.76;100.00;96689.65;645966;216;31653;-73
2022/03/22 00:57:53;;;;;;;3.62;2.92;;;-1.50;1.40;;;-0.90;100.00;96687.80;647179;216;32174;-77
2022/03/22 01:00:44;;;;;;;4.87;2.90;;;-1.70;1.40;;;-0.98;100.00;96693.35;618250;226;31896;-74
2022/03/22 01:03:28;;;;;;;2.42;2.15;;;-1.90;1.40;;;-1.01;100.00;96696.16;646940;212;31597;-74
2022/03/22 01:06:08;;;;;;;2.30;1.12;;;-1.90;1.40;;;-1.06;100.00;96699.60;648192;212;31535;-74
2022/03/22 01:08:49;;;;;;;2.87;2.65;;;-1.90;1.40;;;-1.08;100.00;96695.13;607842;226;32194;-77
2022/03/22 01:11:31;;;;;;;3.70;2.00;;;-1.80;1.40;;;-0.76;100.00;96691.89;645949;212;31536;-76
2022/03/22 01:14:15;;;;;;;2.78;1.90;;;-1.60;1.40;;;-0.95;100.00;96693.00;619864;226;32164;-76
2022/03/22 01:16:57;;;;;;;1.70;1.12;;;-1.80;1.40;;;-0.99;100.00;96696.45;647126;212;31630;-77
2022/03/22 01:19:44;;;;;;;7.32;2.87;;;-1.90;1.40;;;-1.05;100.00;96691.46;647531;216;31658;-76
2022/03/22 01:22:28;;;;;;;3.30;1.58;;;-1.90;1.40;;;-0.92;100.00;96688.69;647354;212;31548;-77
2022/03/22 01:25:11;;;;;;;4.65;2.55;;;-1.70;1.40;;;-1.13;100.00;96689.48;648426;212;31592;-76
2022/03/22 01:28:08;;;;;;;2.95;1.95;;;-2.00;1.40;;;-1.38;100.00;96693.52;623303;225;31877;-76
2022/03/22 01:31:14;;;;;;;5.73;5.23;;;-2.20;1.40;;;-1.60;100.00;96687.56;647841;220;23515;-76
2022/03/22 01:46:30;;;;;;;3.20;2.40;;;-2.50;1.40;;;-1.88;100.00;96696.66;645476;215;31583;-77
2022/03/22 01:49:12;;;;;;;2.00;1.70;;;-2.50;1.40;;;-1.81;100.00;96691.58;620384;226;31935;-77
2022/03/22 01:51:55;;;;;;;2.60;1.87;;;-2.50;1.40;;;-1.74;100.00;96685.16;646378;216;31536;-77
2022/03/22 01:54:37;;;;;;;1.60;1.30;;;-2.50;1.40;;;-1.63;100.00;96683.92;646316;216;31546;-74
2022/03/22 01:57:21;;;;;;;2.70;1.40;;;-2.30;1.40;;;-1.60;100.00;96685.53;648825;216;31573;-77
2022/03/22 02:00:06;;;;;;;1.60;1.33;;;-2.10;1.40;;;-1.69;100.00;96685.56;621835;225;32106;-76
2022/03/22 02:08:30;;;;;;;3.30;2.75;;;-2.20;1.40;;;-1.50;100.00;96675.63;636247;216;31639;-77
2022/03/22 02:11:13;;;;;;;3.10;1.73;;;-2.10;1.40;;;-1.54;100.00;96673.33;646018;212;31724;-76
2022/03/22 02:14:01;;;;;;;2.70;1.70;;;-2.10;1.40;;;-1.43;100.00;96668.81;620214;222;32028;-77
2022/03/22 02:16:49;;;;;;;2.25;1.98;;;-2.00;1.40;;;-1.36;100.00;96670.39;646799;216;31595;-74
2022/03/22 02:19:31;;;;;;;2.10;1.90;;;-2.00;1.40;;;-1.58;100.00;96668.02;645989;216;31609;-74
2022/03/22 02:22:18;;;;;;;2.40;1.67;;;-2.20;1.40;;;-1.54;100.00;96667.45;648627;212;31577;-77
2022/03/22 02:25:00;;;;;;;2.62;1.80;;;-2.30;1.40;;;-1.49;100.00;96666.31;621783;222;32045;-78
2022/03/22 02:27:52;;;;;;;4.32;2.00;;;-2.20;1.40;;;-1.56;100.00;96665.05;646268;216;31637;-78
2022/03/22 02:30:31;;;;;;;1.50;1.10;;;-2.30;1.40;;;-1.72;100.00;96667.31;645969;216;31542;-76
2022/03/22 02:38:28;;;;;;;3.45;1.60;;;-2.40;1.40;;;-1.73;100.00;96669.77;646785;212;31564;-75
2022/03/22 02:41:17;;;;;;;1.70;1.50;;;-2.50;1.40;;;-1.80;100.00;96667.31;620307;226;32348;-77
2022/03/22 02:43:58;;;;;;;1.20;1.10;;;-2.60;1.40;;;-1.84;100.00;96667.66;647245;216;32351;-77
2022/03/22 02:46:43;;;;;;;3.30;1.48;;;-2.70;1.40;;;-1.85;100.00;96661.02;648429;212;32277;-76
2022/03/22 02:49:25;;;;;;;1.75;1.65;;;-2.60;1.40;;;-1.78;100.00;96651.25;648034;212;31660;-76
2022/03/22 02:52:08;;;;;;;1.30;1.17;;;-2.50;1.40;;;-1.72;100.00;96651.05;647440;216;31539;-77
2022/03/22 02:54:50;;;;;;;1.80;1.25;;;-2.40;1.40;;;-1.80;100.00;96646.43;619085;226;42543;-77
2022/03/22 02:57:34;;;;;;;3.90;1.65;;;-2.60;1.40;;;-1.86;100.00;96659.55;616747;226;31975;-77
2022/03/22 03:00:15;;;;;;;3.95;2.15;;;-2.70;1.40;;;-2.03;100.00;96654.16;620162;222;31894;-77
2022/03/22 03:02:57;;;;;;;2.37;1.30;;;-2.80;1.40;;;-2.07;100.00;96655.74;647440;216;42472;-77
2022/03/22 03:05:38;;;;;;;3.90;1.70;;;-2.80;1.40;;;-2.03;100.00;96658.91;648238;216;32103;-76
2022/03/22 03:08:26;;;;;;;1.77;1.25;;;-2.70;1.40;;;-1.97;100.00;96654.47;610540;226;32105;-76
2022/03/22 03:11:12;;;;;;;1.80;1.10;;;-2.60;1.40;;;-2.00;100.00;96654.37;647046;216;31558;-77
2022/03/22 03:16:45;;;;;;;1.67;1.52;;;-2.50;1.40;;;-1.78;100.00;96655.91;646917;212;31561;-76
2022/03/22 03:19:33;;;;;;;0.70;0.50;;;-2.40;1.40;;;-1.47;100.00;96662.52;647396;216;31495;-77
2022/03/22 03:22:15;;;;;;;1.10;0.93;;;-2.40;1.40;;;-1.73;100.00;96667.53;646587;216;31562;-77
2022/03/22 03:25:03;;;;;;;1.20;0.90;;;-2.60;1.40;;;-1.68;100.00;96668.31;645844;216;31793;-77
2022/03/22 03:27:50;;;;;;;2.87;1.80;;;-2.40;1.40;;;-1.97;100.00;96669.84;620023;226;32484;-77
2022/03/22 03:30:32;;;;;;;4.07;1.20;;;-2.70;1.40;;;-2.17;100.00;96669.78;646363;216;31677;-77
2022/03/22 03:35:51;;;;;;;5.62;2.20;;;-3.00;1.40;;;-2.37;100.00;96680.23;619863;222;43149;-77
2022/03/22 03:38:41;;;;;;;1.52;1.17;;;-3.10;1.40;;;-2.64;100.00;96679.77;647297;216;31612;-78
2022/03/22 03:47:03;;;;;;;2.58;2.20;;;-3.80;1.40;;;-3.07;100.00;96687.38;646568;216;31595;-77
2022/03/22 03:49:34;;;;;;;3.12;2.30;;;-3.90;1.40;;;-3.17;100.00;96697.70;647519;216;31559;-76
2022/03/22 03:52:17;;;;;;;2.17;1.80;;;-3.80;1.40;;;-3.13;100.00;96695.38;620374;222;31913;-77
2022/03/22 03:55:06;;;;;;;1.40;1.30;;;-3.80;1.40;;;-3.09;100.00;96698.38;619377;226;32018;-74
2022/03/22 03:57:49;;;;;;;3.20;1.10;;;-3.70;1.40;;;-3.05;100.00;96699.94;619854;226;31826;-77
2022/03/22 04:00:36;;;;;;;1.80;1.10;;;-3.60;1.40;;;-3.03;100.00;96693.87;645615;212;32470;-74
2022/03/22 04:03:24;;;;;;;1.23;1.12;;;-3.70;1.40;;;-2.97;100.00;96696.80;643277;215;42361;-77
2022/03/22 04:06:06;;;;;;;2.80;1.20;;;-3.70;1.40;;;-3.00;100.00;96697.20;621917;222;42504;-76
2022/03/22 04:08:50;;;;;;;3.20;1.80;;;-3.70;1.40;;;-3.10;100.00;96696.84;622819;222;31957;-76
2022/03/22 04:11:40;;;;;;;0.85;0.80;;;-3.80;1.40;;;-3.18;100.00;96694.95;648847;212;31525;-76
2022/03/22 04:14:24;;;;;;;1.70;1.20;;;-3.80;1.40;;;-3.15;100.00;96696.59;646497;216;31638;-74
2022/03/22 04:17:11;;;;;;;3.40;1.62;;;-3.70;1.40;;;-3.12;100.00;96692.02;645530;216;31934;-77
2022/03/22 04:20:03;;;;;;;2.80;0.90;;;-3.70;1.40;;;-3.02;100.00;96693.31;622302;222;32150;-77
2022/03/22 04:22:48;;;;;;;2.10;1.50;;;-3.60;1.40;;;-3.15;100.00;96696.98;618939;223;32672;-75
2022/03/22 04:25:32;;;;;;;1.45;1.20;;;-3.80;1.40;;;-3.20;100.00;96697.42;646835;216;31568;-74
2022/03/22 04:35:51;;;;;;;2.60;1.10;;;-3.90;1.40;;;-3.12;100.00;96697.11;646412;216;42227;-74
2022/03/22 04:38:44;;;;;;;2.37;1.40;;;-3.60;1.40;;;-3.01;100.00;96695.17;649112;212;42211;-77
2022/03/22 04:41:35;;;;;;;3.20;1.00;;;-3.50;1.40;;;-2.86;100.00;96694.73;645625;216;42176;-75
2022/03/22 04:44:20;;;;;;;1.27;1.15;;;-3.40;1.40;;;-2.72;100.00;96691.82;646223;212;32265;-75
2022/03/22 04:47:02;;;;;;;2.10;1.50;;;-3.20;1.40;;;-2.76;100.00;96686.73;646698;212;31860;-75
2022/03/22 04:49:43;;;;;;;3.87;1.75;;;-3.20;1.40;;;-2.77;100.00;96681.22;646968;216;31600;-76
2022/03/22 05:00:46;;;;;;;1.45;1.25;;;-3.50;1.40;;;-2.98;100.00;96693.12;649513;216;31515;-78
2022/03/22 05:08:49;;;;;;;1.27;1.17;;;-3.40;1.40;;;-2.72;100.00;96702.67;635622;212;31688;-75
2022/03/22 05:11:36;;;;;;;3.70;1.30;;;-3.30;1.40;;;-2.70;100.00;96705.47;649570;212;31565;-77
2022/03/22 05:14:22;;;;;;;1.30;0.80;;;-3.40;1.40;;;-2.79;100.00;96706.77;635962;222;31756;-77
2022/03/22 05:17:11;;;;;;;3.50;1.42;;;-3.50;1.40;;;-2.84;100.00;96706.73;646336;216;31594;-75
2022/03/22 05:30:26;;;;;;;1.60;0.70;;;-3.40;1.40;;;-2.73;100.00;96713.05;645246;216;31529;-75
2022/03/22 05:46:22;;;;;;;2.50;1.50;;;-2.70;1.40;;;-2.23;100.00;96704.59;645287;216;31585;-76
2022/03/22 05:49:04;;;;;;;1.10;1.00;;;-3.10;1.40;;;-2.14;100.00;96705.43;646807;216;31589;-75
2022/03/22 05:51:45;;;;;;;1.65;1.50;;;-3.10;1.40;;;-2.65;100.00;96705.59;645236;216;31655;-74
2022/03/22 05:54:34;;;;;;;1.70;0.90;;;-3.50;1.40;;;-2.67;100.00;96708.48;650850;216;31499;-79
2022/03/22 05:57:18;;;;;;;2.78;1.85;;;-3.60;1.40;;;-2.67;100.00;96710.17;650080;214;31947;-78
2022/03/22 06:00:18;;;;;;;1.67;1.23;;;-3.60;1.40;;;-2.64;100.00;96711.12;619212;222;32042;-76
2022/03/22 06:03:09;;;;;;;1.60;1.20;;;-3.40;1.40;;;-2.61;100.00;96711.65;647516;212;31552;-77
2022/03/22 06:05:51;;;;;;;1.70;1.50;;;-3.30;1.40;;;-2.38;100.00;96712.81;620006;222;42566;-77
2022/03/22 06:08:45;;;;;;;2.25;1.30;;;-3.00;1.40;;;-2.27;100.00;96709.66;645893;212;31593;-76
2022/03/22 06:11:26;;;;;;;2.60;1.05;;;-3.00;1.40;;;-2.12;100.00;96716.95;646176;216;34485;-76
2022/03/22 06:14:08;;;;;;;2.40;1.30;;;-2.90;1.40;;;-1.93;100.00;96713.73;648054;216;32029;-76
2022/03/22 06:16:50;;;;;;;0.60;0.60;;;-2.70;1.40;;;-1.83;100.00;96717.50;645709;216;31584;-77
2022/03/22 06:19:34;;;;;;;3.25;1.85;;;-2.50;1.40;;;-1.78;100.00;96717.27;646962;212;31522;-77
2022/03/22 06:22:27;;;;;;;1.00;0.90;;;-2.40;1.40;;;-1.61;100.00;96720.45;645399;212;31576;-77
2022/03/22 06:25:18;;;;;;;1.42;1.33;;;-2.30;1.40;;;-1.47;100.00;96722.38;646656;216;42688;-76
2022/03/22 06:28:04;;;;;;;1.37;1.00;;;-2.10;1.40;;;-1.27;100.00;96715.22;646624;212;31815;-76
2022/03/22 06:35:54;;;;;;;1.70;0.90;;;-1.70;1.40;;;-0.77;100.00;96724.66;646423;216;31532;-77
2022/03/22 06:38:41;;;;;;;1.77;1.67;;;-1.50;1.40;;;-0.57;100.00;96718.30;649371;212;31509;-78
2022/03/22 06:41:23;;;;;;;3.45;2.55;;;-1.20;1.40;;;-0.34;100.00;96724.67;649286;216;42246;-78
2022/03/22 06:44:11;;;;;;;4.15;2.20;;;-1.00;1.40;;;-0.11;100.00;96720.84;647208;216;31528;-75
2022/03/22 06:46:59;;;;;;;3.25;2.05;;;-0.90;1.40;;;0.13;100.00;96721.48;647682;212;31615;-77
2022/03/22 06:49:41;;;;;;;3.30;2.65;;;-0.70;1.40;;;0.38;100.00;96725.13;621743;222;32008;-78
2022/03/22 06:52:23;;;;;;;3.60;2.12;;;-0.40;1.40;;;0.62;100.00;96722.15;622162;226;31983;-78
2022/03/22 06:55:10;;;;;;;2.17;2.08;;;-0.20;1.40;;;0.81;100.00;96718.33;645690;216;31565;-75
2022/03/22 06:57:58;;;;;;;2.53;1.70;;;0.00;1.40;;;1.02;100.00;96725.37;647368;216;31552;-80
2022/03/22 07:00:46;;;;;;;2.78;2.58;;;0.20;1.40;;;1.27;100.00;96725.80;646673;216;31596;-75
2022/03/22 07:03:28;;;;;;;2.97;2.67;;;0.50;1.40;;;1.52;100.00;96722.10;646473;216;31582;-76
2022/03/22 07:06:12;;;;;;;4.65;3.50;;;0.60;1.40;;;1.77;100.00;96728.74;620110;222;32679;-76
2022/03/22 07:08:54;;;;;;;2.62;2.10;;;0.80;1.40;;;1.98;100.00;96734.53;646285;216;31594;-75
2022/03/22 07:14:24;;;;;;;4.68;3.00;;;1.20;1.40;;;2.40;100.00;96740.94;647571;212;42725;-75
2022/03/22 07:17:06;;;;;;;2.90;2.35;;;1.40;1.40;;;2.60;100.00;96748.56;619570;226;31971;-76
2022/03/22 07:19:54;;;;;;;3.55;3.15;;;1.70;1.40;;;2.82;100.00;96746.72;620898;226;42547;-80
2022/03/22 07:22:38;;;;;;;6.32;3.00;;;1.80;1.40;;;2.94;100.00;96750.86;646154;212;31596;-76
2022/03/22 07:25:25;;;;;;;3.12;2.92;;;2.00;1.40;;;3.17;100.00;96752.05;647385;216;42167;-79
2022/03/22 07:28:13;;;;;;;7.47;5.03;;;2.10;1.40;;;3.36;100.00;96748.80;646597;216;31590;-77
2022/03/22 07:30:57;;;;;;;4.07;3.05;;;2.30;1.40;;;3.43;100.00;96749.37;648220;212;31626;-80
2022/03/22 07:35:53;;;;;;;4.50;2.70;;;2.70;1.40;;;3.88;100.00;96747.58;620580;222;32572;-79
2022/03/22 07:38:35;;;;;;;5.05;4.18;;;3.00;1.40;;;4.01;100.00;96746.86;648699;216;31922;-79
2022/03/22 07:41:20;;;;;;;4.80;3.35;;;3.20;1.40;;;4.25;100.00;96748.48;648682;212;32085;-79
2022/03/22 07:44:03;;;;;;;3.72;3.33;;;3.40;1.40;;;4.28;99.83;96750.20;620243;222;42551;-79
2022/03/22 07:46:49;;;;;;;6.15;3.90;;;3.30;1.40;;;4.44;98.52;96749.23;647021;216;31602;-78
2022/03/22 07:55:14;;;;;;;5.05;4.55;;;3.70;1.40;;;4.61;94.54;96753.23;618167;226;31941;-77
2022/03/22 07:58:05;;;;;;;5.70;3.85;;;3.80;1.40;;;4.76;94.03;96753.28;647137;212;31589;-79
2022/03/22 08:00:47;;;;;;;4.80;3.70;;;4.00;1.40;;;4.79;93.37;96755.82;647112;216;31673;-79
2022/03/22 08:03:31;;;;;;;4.68;4.25;;;3.90;1.40;;;5.20;93.14;96757.81;645841;212;31639;-79
2022/03/22 08:06:18;;;;;;;8.27;4.10;;;4.20;1.40;;;5.43;92.34;96759.99;619750;226;31975;-79
2022/03/22 08:11:35;;;;;;;5.35;4.20;;;4.40;1.40;;;5.61;91.02;96752.19;620371;226;31925;-80
2022/03/22 08:14:20;;;;;;;3.42;2.95;;;4.50;1.40;;;5.56;88.90;96753.68;647048;216;31594;-80
2022/03/22 08:17:03;;;;;;;4.22;3.40;;;4.60;1.40;;;6.02;90.33;96754.83;646982;216;31627;-80
2022/03/22 08:19:44;;;;;;;7.40;4.45;;;5.00;1.40;;;6.10;87.47;96751.45;647255;216;31603;-78
2022/03/22 08:22:26;;;;;;;4.50;3.70;;;5.10;1.40;;;6.32;87.37;96749.25;648553;212;31615;-79
2022/03/22 08:25:08;;;;;;;5.43;3.90;;;5.30;1.40;;;6.59;86.64;96751.51;648479;212;32246;-79
2022/03/22 08:27:51;;;;;;;7.25;5.20;;;5.50;1.40;;;6.77;85.56;96750.66;647925;212;32812;-80
2022/03/22 08:30:39;;;;;;;5.20;3.87;;;5.60;1.40;;;6.71;83.37;96751.88;646613;212;36473;-77
2022/03/22 08:35:52;;;;;;;4.18;3.17;;;5.80;1.40;;;6.94;82.86;96750.22;647563;216;42208;-79
2022/03/22 08:38:33;;;;;;;5.05;3.85;;;6.10;1.40;;;7.27;82.57;96753.77;618684;222;42626;-80
2022/03/22 08:41:16;;;;;;;5.15;3.87;;;6.50;1.40;;;7.35;79.79;96752.14;648772;216;31578;-79
2022/03/22 08:43:58;;;;;;;6.05;4.00;;;6.80;1.40;;;7.30;78.22;96749.39;647922;216;31770;-81
2022/03/22 08:46:40;;;;;;;4.70;3.20;;;6.60;1.40;;;7.43;76.83;96744.58;653925;216;23549;-79
2022/03/22 08:49:27;;;;;;;4.80;3.78;;;6.60;1.40;;;7.92;78.54;96747.71;646704;216;42748;-78
2022/03/22 08:52:15;;;;;;;5.40;3.72;;;7.20;1.40;;;8.62;78.20;96744.09;646858;212;31806;-80
2022/03/22 08:55:03;;;;;;;4.80;3.90;;;8.00;1.40;;;8.99;75.43;96737.46;647791;216;32142;-78
2022/03/22 08:57:50;;;;;;;5.40;4.40;;;8.30;1.40;;;9.37;73.46;96744.56;643548;215;31703;-77
2022/03/22 09:00:33;;;;;;;5.25;3.72;;;8.40;1.40;;;9.74;73.52;96742.78;646574;216;42198;-78
2022/03/22 09:03:18;;;;;;;5.53;4.30;;;8.70;1.40;;;9.43;67.27;96747.07;646894;212;31748;-77
2022/03/22 09:08:52;;;;;;;6.07;5.03;;;10.80;1.40;;;12.41;59.10;96739.28;635997;213;31730;-77
2022/03/22 09:11:37;;;;;;;8.17;5.13;;;14.40;1.40;;;13.03;52.18;96731.31;621395;222;32046;-79
2022/03/22 09:14:21;;;;;;;9.30;4.72;;;15.00;1.40;;;15.71;53.08;96725.05;647020;216;32340;-79
2022/03/22 09:17:09;;;;;;;5.68;4.30;;;16.60;1.40;;;18.01;43.91;96719.95;646490;212;37338;-78
2022/03/22 09:19:56;;;;;;;7.97;5.20;;;18.00;1.40;;;18.49;41.79;96721.02;649010;212;31568;-78
2022/03/22 09:22:43;;;;;;;6.62;4.90;;;18.40;1.40;;;20.47;38.46;96720.55;647429;216;32161;-78
2022/03/22 09:25:24;;;;;;;7.85;5.20;;;19.10;1.40;;;21.65;38.48;96717.16;617170;224;32076;-79
2022/03/22 09:28:06;;;;;;;6.67;5.80;;;19.30;1.40;;;20.52;38.62;96725.16;646642;216;42269;-79
2022/03/22 09:30:54;;;;;;;8.25;5.45;;;18.90;1.40;;;22.93;37.98;96712.32;646306;216;31573;-77
2022/03/22 09:35:57;;;;;;;6.70;6.10;;;20.40;1.40;;;24.06;33.09;96712.79;646819;212;32534;-78
2022/03/22 09:38:41;;;;;;;6.03;5.18;;;20.80;1.40;;;24.72;36.73;96711.86;648253;216;31551;-78
2022/03/22 09:41:23;;;;;;;7.45;6.30;;;21.10;1.40;;;26.75;32.29;96700.17;647186;216;31728;-78
2022/03/22 09:44:11;;;;;;;7.40;6.12;;;21.80;99.90;;;27.20;29.62;96701.94;647493;216;31564;-77
2022/03/22 09:46:52;;;;;;;7.05;5.82;;;21.30;99.90;;;22.30;29.12;96702.61;648239;216;31559;-78
2022/03/22 09:52:15;;;;;;;7.20;6.50;;;20.70;1.40;;;23.08;28.94;96699.20;647072;212;31797;-79
2022/03/22 09:54:57;;;;;;;7.22;5.60;;;19.50;1.40;;;24.97;31.08;96690.09;647925;212;31644;-78
2022/03/22 09:57:39;;;;;;;7.20;6.12;;;19.30;1.40;;;26.34;33.59;96684.75;631197;221;42377;-79
2022/03/22 10:00:21;;;;;;;9.27;6.55;;;21.80;1.40;;;27.06;28.99;96682.25;642046;217;31648;-78
2022/03/22 10:03:06;;;;;;;7.40;6.45;;;21.70;99.90;;;28.20;31.95;96677.55;646536;212;31595;-78
2022/03/22 10:06:01;;;;;;;7.57;6.78;;;22.80;1.40;;;27.31;27.95;96679.22;648679;216;42214;-78
2022/03/22 10:11:17;;;;;;;8.25;6.18;;;22.40;99.90;;;27.31;24.88;96679.55;647883;216;31604;-78
2022/03/22 10:14:04;;;;;;;7.20;6.50;;;22.20;99.90;;;28.26;27.07;96680.57;642703;216;31586;-78
2022/03/22 10:16:50;;;;;;;7.25;5.93;;;21.30;99.90;;;28.59;25.67;96678.63;619864;222;31878;-79
2022/03/22 10:19:45;;;;;;;7.78;6.30;;;22.50;99.90;;;29.01;25.66;96675.42;647049;212;31541;-77
2022/03/22 10:22:33;;;;;;;7.03;6.30;;;22.60;99.90;;;28.49;25.21;96672.63;647610;216;31720;-78
2022/03/22 10:25:23;;;;;;;7.35;6.65;;;22.00;99.90;;;29.14;24.73;96675.56;648077;216;31575;-78
2022/03/22 10:28:07;;;;;;;8.43;5.78;;;22.80;99.90;;;28.68;25.06;96676.56;647675;216;31713;-78
2022/03/22 10:30:52;;;;;;;6.80;5.18;;;22.60;99.90;;;29.30;25.59;96672.13;648260;216;31633;-78
2022/03/22 10:35:52;;;;;;;6.40;5.70;;;24.70;99.90;;;25.02;27.73;96681.56;647657;216;31533;-78
2022/03/22 10:38:33;;;;;;;6.95;6.25;;;21.60;1.40;;;25.89;25.32;96679.27;620658;222;32041;-77
2022/03/22 10:41:15;;;;;;;6.37;5.65;;;21.50;1.40;;;28.89;24.35;96662.91;647836;212;31503;-77
2022/03/22 10:44:05;;;;;;;6.60;5.90;;;22.80;99.90;;;29.70;24.00;96666.46;619501;226;32119;-77
2022/03/22 10:46:48;;;;;;;7.07;6.37;;;23.50;99.90;;;30.07;22.24;96664.30;647314;212;31606;-78
2022/03/22 10:49:24;;;;;;;7.90;5.20;;;23.20;99.90;;;30.22;22.78;96660.94;641928;221;22509;-78
2022/03/22 10:52:06;;;;;;;6.75;5.47;;;23.00;99.90;;;29.50;22.57;96666.48;620748;226;31914;-77
2022/03/22 10:54:47;;;;;;;6.65;5.90;;;23.70;99.90;;;26.44;25.55;96666.09;618610;226;31853;-78
2022/03/22 10:57:37;;;;;;;6.12;5.53;;;22.70;99.90;;;29.22;23.95;96659.83;648460;216;31590;-78
2022/03/22 11:00:16;;;;;;;6.40;5.72;;;24.00;99.90;;;28.02;23.54;96662.72;620649;222;32244;-78
2022/03/22 11:03:03;;;;;;;5.80;4.55;;;23.70;99.90;;;29.46;23.05;96655.77;646506;216;31739;-76
2022/03/22 11:05:52;;;;;;;6.40;5.80;;;24.40;99.90;;;29.85;21.72;96651.08;646913;216;31577;-78
2022/03/22 11:08:41;;;;;;;5.05;4.60;;;23.40;99.90;;;30.38;22.91;96647.37;636427;216;31890;-76
2022/03/22 11:16:04;;;;;;;6.10;5.50;;;25.00;99.90;;;32.44;19.92;96633.67;621013;222;34150;-79
2022/03/22 11:18:52;;;;;;;5.55;5.00;;;24.90;99.90;;;33.47;19.38;96638.34;645572;216;31705;-78
2022/03/22 11:21:34;;;;;;;5.95;5.35;;;25.10;99.90;;;26.47;22.30;96646.58;619439;226;31953;-76
2022/03/22 11:24:16;;;;;;;5.93;5.35;;;22.80;99.90;;;26.30;23.59;96646.45;646703;216;31701;-77
2022/03/22 11:27:01;;;;;;;6.80;5.37;;;22.70;99.90;;;25.03;22.98;96647.08;619262;226;32742;-77
2022/03/22 11:29:45;;;;;;;5.68;5.18;;;22.30;99.90;;;31.38;20.02;96632.04;619223;222;32040;-80
2022/03/22 11:35:56;;;;;;;4.50;4.10;;;20.90;99.90;;;21.87;23.59;96646.55;646131;216;35222;-77
2022/03/22 11:38:43;;;;;;;8.15;4.62;;;19.60;99.90;;;22.27;23.61;96647.37;646704;216;31632;-77
2022/03/22 11:44:22;;;;;;;5.62;3.97;;;20.60;99.90;;;22.31;24.46;96643.09;646077;216;31965;-76
2022/03/22 11:47:07;;;;;;;4.80;4.30;;;21.00;99.90;;;28.66;21.20;96625.45;646300;216;32239;-76
2022/03/22 11:49:56;;;;;;;5.03;4.40;;;24.20;99.90;;;24.59;22.43;96636.47;618746;226;31932;-81
2022/03/22 11:52:44;;;;;;;5.68;5.15;;;22.00;99.90;;;23.50;22.33;96630.66;645407;216;32025;-77
2022/03/22 11:55:31;;;;;;;5.57;4.70;;;21.10;99.90;;;24.30;22.55;96624.11;648990;216;31542;-79
2022/03/22 11:58:15;;;;;;;5.37;4.57;;;21.50;99.90;;;29.09;21.58;96608.50;618408;222;32088;-76
2022/03/22 12:00:58;;;;;;;6.07;4.53;;;24.10;99.90;;;32.57;19.34;96599.92;646816;216;31722;-76
2022/03/22 12:03:38;;;;;;;5.53;4.70;;;25.50;99.90;;;28.10;19.79;96610.91;647219;216;31571;-79
2022/03/22 12:06:20;;;;;;;5.32;4.62;;;23.10;99.90;;;28.95;21.08;96609.94;646256;215;31644;-75
2022/03/22 12:09:07;;;;;;;5.95;5.15;;;23.80;99.90;;;31.23;19.41;96599.89;619219;222;31965;-79
2022/03/22 12:11:56;;;;;;;5.97;4.30;;;25.40;99.90;;;32.38;19.07;96598.56;645955;212;42367;-76
2022/03/22 12:14:45;;;;;;;5.65;4.65;;;25.70;99.90;;;32.53;18.77;96600.81;647074;216;42246;-79
2022/03/22 12:17:25;;;;;;;4.50;4.10;;;24.70;99.90;;;32.20;18.39;96598.86;620686;226;31939;-79
2022/03/22 12:20:11;;;;;;;5.10;4.60;;;25.20;99.90;;;31.61;19.48;96601.59;620621;222;31981;-79
2022/03/22 12:22:59;;;;;;;4.97;4.47;;;25.60;99.90;;;33.83;18.07;96600.14;619419;222;42710;-77
2022/03/22 12:25:46;;;;;;;5.75;5.15;;;26.10;99.90;;;32.78;18.05;96590.92;615296;226;32113;-76
2022/03/22 12:28:34;;;;;;;5.75;5.25;;;25.60;99.90;;;35.26;16.55;96581.86;647372;216;42620;-79
2022/03/22 12:31:20;;;;;;;5.57;4.75;;;26.00;99.90;;;32.21;19.33;96589.39;646732;216;32199;-78
2022/03/22 12:35:57;;;;;;;5.57;5.07;;;25.80;99.90;;;31.85;18.35;96583.77;646427;216;31612;-78
2022/03/22 12:38:39;;;;;;;5.28;4.72;;;25.00;99.90;;;34.29;16.87;96581.22;647201;216;32092;-78
2022/03/22 12:41:21;;;;;;;4.93;4.40;;;25.80;99.90;;;35.53;16.37;96575.84;647368;216;42188;-78
2022/03/22 12:44:05;;;;;;;4.45;4.00;;;26.60;99.90;;;25.57;19.97;96593.19;644547;216;31623;-75
2022/03/22 12:46:47;;;;;;;5.50;4.20;;;21.60;1.40;;;23.70;22.71;96593.36;647699;216;31682;-77
2022/03/22 12:49:34;;;;;;;5.18;4.25;;;21.60;99.90;;;31.00;18.63;96577.83;642677;216;31815;-77
2022/03/22 12:52:16;;;;;;;6.80;4.90;;;24.40;99.90;;;30.72;19.29;96572.61;618923;226;32065;-77
2022/03/22 12:54:58;;;;;;;5.70;4.30;;;25.10;99.90;;;32.76;17.00;96569.39;619020;226;31978;-78
2022/03/22 12:57:44;;;;;;;3.95;3.55;;;26.10;99.90;;;33.45;17.30;96567.98;646784;216;31666;-75
2022/03/22 13:00:31;;;;;;;4.55;3.83;;;26.40;99.90;;;31.37;18.30;96567.31;646900;216;31772;-78
2022/03/22 13:03:14;;;;;;;4.78;4.22;;;24.00;99.90;;;30.03;19.35;96564.79;647162;212;32897;-77
2022/03/22 13:05:55;;;;;;;4.70;4.20;;;24.30;99.90;;;31.73;17.88;96559.34;646681;216;31627;-77
2022/03/22 13:11:30;;;;;;;5.60;4.57;;;25.40;99.90;;;32.78;16.89;96553.45;645996;216;31707;-76
2022/03/22 13:17:11;;;;;;;5.95;4.78;;;23.60;99.90;;;28.17;19.39;96559.60;646437;212;32278;-75
2022/03/22 13:20:01;;;;;;;3.62;3.33;;;24.20;99.90;;;33.48;17.39;96554.72;618018;225;31947;-77
2022/03/22 13:22:54;;;;;;;4.97;4.20;;;26.40;99.90;;;32.36;17.19;96551.73;620092;222;32287;-77
2022/03/22 13:25:37;;;;;;;4.80;4.00;;;26.10;99.90;;;33.68;16.32;96549.34;647561;216;31716;-77
2022/03/22 13:28:18;;;;;;;4.25;3.85;;;26.20;99.90;;;33.02;15.93;96548.08;646575;216;32962;-78
2022/03/22 13:31:00;;;;;;;7.75;4.30;;;25.40;99.90;;;33.59;16.62;96542.23;646561;212;32308;-77
2022/03/22 13:35:55;;;;;;;6.90;4.37;;;26.20;99.90;;;30.03;16.96;96545.48;619163;222;32272;-77
2022/03/22 13:38:37;;;;;;;4.12;3.72;;;24.70;99.90;;;31.32;16.98;96535.71;648191;212;31928;-78
2022/03/22 13:41:26;;;;;;;5.65;3.78;;;25.40;99.90;;;33.31;15.51;96537.31;646643;216;31653;-77
2022/03/22 13:44:08;;;;;;;4.57;4.18;;;25.40;99.90;;;31.56;17.15;96529.68;647241;216;32532;-77
2022/03/22 13:46:50;;;;;;;3.90;3.50;;;25.80;99.90;;;32.71;15.65;96528.08;647079;216;31608;-77
2022/03/22 13:49:34;;;;;;;5.07;3.40;;;26.20;99.90;;;32.94;15.87;96527.25;646063;216;31770;-77
2022/03/22 13:52:15;;;;;;;4.80;3.75;;;26.10;1.00;;;33.54;15.79;96524.25;646764;216;31644;-77